Station Historical Data
Daily Summary for January 1, 2018 Units:  Both    English   Metric
« Previous Day
Next Day »
Daily Weekly Monthly Yearly Custom
  High: Low: Average:
Temperature: 15.0 °F /  -9.4 °C -3.2 °F /  -19.6 °C 6.9 °F /  -13.9 °C
Dew Point: 6.6 °F /  -14.1 °C -7.6 °F /  -22 °C 0.6 °F /  -17.4 °C
Humidity: 84% 58% 76%
Wind Speed: 16.0mph /  25.7km/h - 4.9mph /  7.9km/h
Wind Gust: 23.0mph /  37km/h - -
Wind- - West
Pressure: 30.49 in /  1032.4 hPa 30.37 in /  1028.3 hPa -
Precipitation: 0.00 in /  0 mm    
Historical Graphs
 
 
Tabular Data for January 1, 2018
Time Temperature Dew Point Pressure Wind Wind Speed Wind Gust Humidity Rainfall Rate (Hourly)
00:04 1.9 °F /  -16.7 °C -3.4 °F /  -19.7 °C 30.48in /  1032.1hPa WNW 4.0mph /  6.4km/h 7.0mph /  11.3km/h 78% 0.00in /  0mm
00:09 2.0 °F /  -16.7 °C -3.3 °F /  -19.6 °C 30.48in /  1032.1hPa West 3.0mph /  4.8km/h 6.0mph /  9.7km/h 78% 0.00in /  0mm
00:14 1.9 °F /  -16.7 °C -3.4 °F /  -19.7 °C 30.48in /  1032.1hPa West 3.0mph /  4.8km/h 6.0mph /  9.7km/h 78% 0.00in /  0mm
00:19 2.1 °F /  -16.6 °C -3.2 °F /  -19.6 °C 30.48in /  1032.1hPa West 3.0mph /  4.8km/h 6.0mph /  9.7km/h 78% 0.00in /  0mm
00:24 2.2 °F /  -16.6 °C -3.1 °F /  -19.5 °C 30.48in /  1032.1hPa West 3.0mph /  4.8km/h 6.0mph /  9.7km/h 78% 0.00in /  0mm
00:29 2.2 °F /  -16.6 °C -3.1 °F /  -19.5 °C 30.48in /  1032.1hPa West 5.0mph /  8km/h 6.0mph /  9.7km/h 78% 0.00in /  0mm
00:34 2.2 °F /  -16.6 °C -3.1 °F /  -19.5 °C 30.47in /  1031.7hPa West 4.0mph /  6.4km/h 7.0mph /  11.3km/h 78% 0.00in /  0mm
00:39 2.3 °F /  -16.5 °C -3.0 °F /  -19.4 °C 30.47in /  1031.7hPa West 3.0mph /  4.8km/h 7.0mph /  11.3km/h 78% 0.00in /  0mm
00:44 2.2 °F /  -16.6 °C -2.8 °F /  -19.3 °C 30.48in /  1032.1hPa WNW 2.0mph /  3.2km/h 6.0mph /  9.7km/h 79% 0.00in /  0mm
00:49 2.2 °F /  -16.6 °C -2.8 °F /  -19.3 °C 30.47in /  1031.7hPa West 1.0mph /  1.6km/h 6.0mph /  9.7km/h 79% 0.00in /  0mm
00:54 2.2 °F /  -16.6 °C -2.8 °F /  -19.3 °C 30.48in /  1032.1hPa West 3.0mph /  4.8km/h 5.0mph /  8km/h 79% 0.00in /  0mm
00:59 2.2 °F /  -16.6 °C -2.8 °F /  -19.3 °C 30.48in /  1032.1hPa West 3.0mph /  4.8km/h 5.0mph /  8km/h 79% 0.00in /  0mm
01:04 2.2 °F /  -16.6 °C -2.8 °F /  -19.3 °C 30.48in /  1032.1hPa West 5.0mph /  8km/h 5.0mph /  8km/h 79% 0.00in /  0mm
01:09 2.2 °F /  -16.6 °C -2.8 °F /  -19.3 °C 30.48in /  1032.1hPa West 2.0mph /  3.2km/h 5.0mph /  8km/h 79% 0.00in /  0mm
01:14 2.0 °F /  -16.7 °C -3.0 °F /  -19.4 °C 30.48in /  1032.1hPa WSW 1.0mph /  1.6km/h 5.0mph /  8km/h 79% 0.00in /  0mm
01:19 2.0 °F /  -16.7 °C -3.0 °F /  -19.4 °C 30.48in /  1032.1hPa West 2.0mph /  3.2km/h 3.0mph /  4.8km/h 79% 0.00in /  0mm
01:24 2.0 °F /  -16.7 °C -3.0 °F /  -19.4 °C 30.48in /  1032.1hPa WSW 2.0mph /  3.2km/h 5.0mph /  8km/h 79% 0.00in /  0mm
01:29 2.0 °F /  -16.7 °C -3.0 °F /  -19.4 °C 30.48in /  1032.1hPa WSW 2.0mph /  3.2km/h 3.0mph /  4.8km/h 79% 0.00in /  0mm
01:34 1.9 °F /  -16.7 °C -2.8 °F /  -19.3 °C 30.48in /  1032.1hPa WSW 1.0mph /  1.6km/h 5.0mph /  8km/h 80% 0.00in /  0mm
01:39 1.9 °F /  -16.7 °C -2.8 °F /  -19.3 °C 30.48in /  1032.1hPa WSW 2.0mph /  3.2km/h 4.0mph /  6.4km/h 80% 0.00in /  0mm
01:44 1.9 °F /  -16.7 °C -2.8 °F /  -19.3 °C 30.48in /  1032.1hPa West 2.0mph /  3.2km/h 5.0mph /  8km/h 80% 0.00in /  0mm
01:49 2.0 °F /  -16.7 °C -2.8 °F /  -19.3 °C 30.48in /  1032.1hPa West 1.0mph /  1.6km/h 5.0mph /  8km/h 80% 0.00in /  0mm
01:54 2.0 °F /  -16.7 °C -2.8 °F /  -19.3 °C 30.48in /  1032.1hPa West 3.0mph /  4.8km/h 7.0mph /  11.3km/h 80% 0.00in /  0mm
01:59 2.0 °F /  -16.7 °C -2.8 °F /  -19.3 °C 30.48in /  1032.1hPa West 3.0mph /  4.8km/h 4.0mph /  6.4km/h 80% 0.00in /  0mm
02:04 1.9 °F /  -16.7 °C -2.8 °F /  -19.3 °C 30.48in /  1032.1hPa West 1.0mph /  1.6km/h 3.0mph /  4.8km/h 80% 0.00in /  0mm
02:05 1.9 °F /  -16.7 °C -2.8 °F /  -19.3 °C 30.48in /  1032.1hPa West 2.0mph /  3.2km/h 4.0mph /  6.4km/h 80% 0.00in /  0mm
02:10 1.8 °F /  -16.8 °C -2.9 °F /  -19.4 °C 30.48in /  1032.1hPa West 3.0mph /  4.8km/h 5.0mph /  8km/h 80% 0.00in /  0mm
02:19 1.7 °F /  -16.8 °C -3.0 °F /  -19.4 °C 30.48in /  1032.1hPa West 1.0mph /  1.6km/h 4.0mph /  6.4km/h 80% 0.00in /  0mm
02:24 1.6 °F /  -16.9 °C -3.1 °F /  -19.5 °C 30.49in /  1032.4hPa West 1.0mph /  1.6km/h 4.0mph /  6.4km/h 80% 0.00in /  0mm
02:29 1.5 °F /  -16.9 °C -3.2 °F /  -19.6 °C 30.49in /  1032.4hPa West 1.0mph /  1.6km/h 2.0mph /  3.2km/h 80% 0.00in /  0mm
02:34 1.5 °F /  -16.9 °C -3.2 °F /  -19.6 °C 30.49in /  1032.4hPa Calm   3.0mph /  4.8km/h 80% 0.00in /  0mm
02:39 1.4 °F /  -17 °C -3.3 °F /  -19.6 °C 30.49in /  1032.4hPa West 1.0mph /  1.6km/h 3.0mph /  4.8km/h 80% 0.00in /  0mm
02:44 1.4 °F /  -17 °C -3.3 °F /  -19.6 °C 30.49in /  1032.4hPa West 1.0mph /  1.6km/h 3.0mph /  4.8km/h 80% 0.00in /  0mm
02:49 1.4 °F /  -17 °C -3.3 °F /  -19.6 °C 30.49in /  1032.4hPa West 1.0mph /  1.6km/h 2.0mph /  3.2km/h 80% 0.00in /  0mm
02:54 1.3 °F /  -17.1 °C -3.2 °F /  -19.6 °C 30.49in /  1032.4hPa Calm   1.0mph /  1.6km/h 81% 0.00in /  0mm
02:59 1.3 °F /  -17.1 °C -3.2 °F /  -19.6 °C 30.49in /  1032.4hPa Calm     81% 0.00in /  0mm
03:04 1.2 °F /  -17.1 °C -3.3 °F /  -19.6 °C 30.48in /  1032.1hPa Calm     81% 0.00in /  0mm
03:09 1.0 °F /  -17.2 °C -3.7 °F /  -19.8 °C 30.48in /  1032.1hPa Calm     80% 0.00in /  0mm
03:14 0.8 °F /  -17.3 °C -3.9 °F /  -19.9 °C 30.48in /  1032.1hPa Calm     80% 0.00in /  0mm
03:19 0.6 °F /  -17.4 °C -4.1 °F /  -20.1 °C 30.48in /  1032.1hPa Calm     80% 0.00in /  0mm
03:20 0.6 °F /  -17.4 °C -4.1 °F /  -20.1 °C 30.48in /  1032.1hPa Calm     80% 0.00in /  0mm
03:29 0.1 °F /  -17.7 °C -4.6 °F /  -20.3 °C 30.48in /  1032.1hPa Calm     80% 0.00in /  0mm
03:34 -0.1 °F /  -17.8 °C -4.8 °F /  -20.4 °C 30.48in /  1032.1hPa Calm     80% 0.00in /  0mm
03:39 -0.5 °F /  -18.1 °C -5.2 °F /  -20.7 °C 30.47in /  1031.7hPa Calm     80% 0.00in /  0mm
03:44 -0.8 °F /  -18.2 °C -5.5 °F /  -20.8 °C 30.48in /  1032.1hPa Calm     80% 0.00in /  0mm
03:49 -1.0 °F /  -18.3 °C -5.7 °F /  -20.9 °C 30.48in /  1032.1hPa Calm     80% 0.00in /  0mm
03:54 -1.3 °F /  -18.5 °C -6.0 °F /  -21.1 °C 30.47in /  1031.7hPa Calm     80% 0.00in /  0mm
03:59 -1.5 °F /  -18.6 °C -6.2 °F /  -21.2 °C 30.48in /  1032.1hPa Calm   3.0mph /  4.8km/h 80% 0.00in /  0mm
04:04 -1.5 °F /  -18.6 °C -6.2 °F /  -21.2 °C 30.47in /  1031.7hPa Calm   3.0mph /  4.8km/h 80% 0.00in /  0mm
04:09 -1.6 °F /  -18.7 °C -6.3 °F /  -21.3 °C 30.48in /  1032.1hPa West 2.0mph /  3.2km/h 3.0mph /  4.8km/h 80% 0.00in /  0mm
04:14 -1.4 °F /  -18.6 °C -6.1 °F /  -21.2 °C 30.48in /  1032.1hPa Calm   3.0mph /  4.8km/h 80% 0.00in /  0mm
04:19 -1.3 °F /  -18.5 °C -5.7 °F /  -20.9 °C 30.47in /  1031.7hPa Calm     81% 0.00in /  0mm
04:24 -1.2 °F /  -18.4 °C -5.6 °F /  -20.9 °C 30.47in /  1031.7hPa Calm     81% 0.00in /  0mm
04:29 -1.1 °F /  -18.4 °C -5.5 °F /  -20.8 °C 30.47in /  1031.7hPa Calm   3.0mph /  4.8km/h 81% 0.00in /  0mm
04:34 -1.0 °F /  -18.3 °C -5.4 °F /  -20.8 °C 30.47in /  1031.7hPa Calm   2.0mph /  3.2km/h 81% 0.00in /  0mm
04:39 -1.0 °F /  -18.3 °C -5.4 °F /  -20.8 °C 30.47in /  1031.7hPa Calm   2.0mph /  3.2km/h 81% 0.00in /  0mm
04:44 -0.9 °F /  -18.3 °C -5.3 °F /  -20.7 °C 30.47in /  1031.7hPa West 1.0mph /  1.6km/h 4.0mph /  6.4km/h 81% 0.00in /  0mm
04:49 -0.7 °F /  -18.2 °C -5.1 °F /  -20.6 °C 30.47in /  1031.7hPa West 1.0mph /  1.6km/h 4.0mph /  6.4km/h 81% 0.00in /  0mm
04:54 -0.5 °F /  -18.1 °C -4.7 °F /  -20.4 °C 30.47in /  1031.7hPa West 1.0mph /  1.6km/h 3.0mph /  4.8km/h 82% 0.00in /  0mm
04:59 -0.4 °F /  -18 °C -4.8 °F /  -20.4 °C 30.47in /  1031.7hPa Calm   3.0mph /  4.8km/h 81% 0.00in /  0mm
05:04 -0.4 °F /  -18 °C -4.6 °F /  -20.3 °C 30.47in /  1031.7hPa Calm   3.0mph /  4.8km/h 82% 0.00in /  0mm
05:09 -0.3 °F /  -17.9 °C -4.5 °F /  -20.3 °C 30.47in /  1031.7hPa Calm     82% 0.00in /  0mm
05:14 -0.3 °F /  -17.9 °C -4.7 °F /  -20.4 °C 30.47in /  1031.7hPa Calm     81% 0.00in /  0mm
05:19 -0.4 °F /  -18 °C -4.6 °F /  -20.3 °C 30.47in /  1031.7hPa Calm     82% 0.00in /  0mm
05:24 -0.5 °F /  -18.1 °C -4.7 °F /  -20.4 °C 30.46in /  1031.4hPa Calm     82% 0.00in /  0mm
05:29 -0.7 °F /  -18.2 °C -5.1 °F /  -20.6 °C 30.47in /  1031.7hPa Calm     81% 0.00in /  0mm
05:34 -0.9 °F /  -18.3 °C -5.3 °F /  -20.7 °C 30.46in /  1031.4hPa Calm     81% 0.00in /  0mm
05:39 -1.1 °F /  -18.4 °C -5.5 °F /  -20.8 °C 30.47in /  1031.7hPa Calm     81% 0.00in /  0mm
05:44 -1.3 °F /  -18.5 °C -5.7 °F /  -20.9 °C 30.47in /  1031.7hPa Calm     81% 0.00in /  0mm
05:49 -1.5 °F /  -18.6 °C -5.9 °F /  -21.1 °C 30.47in /  1031.7hPa Calm     81% 0.00in /  0mm
05:54 -1.6 °F /  -18.7 °C -6.0 °F /  -21.1 °C 30.47in /  1031.7hPa Calm     81% 0.00in /  0mm
06:04 -1.8 °F /  -18.8 °C -6.2 °F /  -21.2 °C 30.47in /  1031.7hPa Calm     81% 0.00in /  0mm
06:09 -1.8 °F /  -18.8 °C -6.2 °F /  -21.2 °C 30.46in /  1031.4hPa Calm     81% 0.00in /  0mm
06:14 -1.9 °F /  -18.8 °C -6.3 °F /  -21.3 °C 30.47in /  1031.7hPa Calm     81% 0.00in /  0mm
06:15 -1.9 °F /  -18.8 °C -6.3 °F /  -21.3 °C 30.47in /  1031.7hPa Calm     81% 0.00in /  0mm
06:19 -1.9 °F /  -18.8 °C -6.3 °F /  -21.3 °C 30.47in /  1031.7hPa Calm     81% 0.00in /  0mm
06:24 -2.0 °F /  -18.9 °C -6.4 °F /  -21.3 °C 30.46in /  1031.4hPa Calm     81% 0.00in /  0mm
06:29 -2.0 °F /  -18.9 °C -6.4 °F /  -21.3 °C 30.46in /  1031.4hPa Calm     81% 0.00in /  0mm
06:34 -2.0 °F /  -18.9 °C -6.4 °F /  -21.3 °C 30.47in /  1031.7hPa Calm     81% 0.00in /  0mm
06:39 -2.1 °F /  -18.9 °C -6.5 °F /  -21.4 °C 30.46in /  1031.4hPa Calm     81% 0.00in /  0mm
06:44 -2.1 °F /  -18.9 °C -6.5 °F /  -21.4 °C 30.46in /  1031.4hPa Calm     81% 0.00in /  0mm
06:49 -2.1 °F /  -18.9 °C -6.5 °F /  -21.4 °C 30.46in /  1031.4hPa Calm     81% 0.00in /  0mm
06:54 -2.1 °F /  -18.9 °C -6.5 °F /  -21.4 °C 30.46in /  1031.4hPa Calm     81% 0.00in /  0mm
06:59 -2.0 °F /  -18.9 °C -6.1 °F /  -21.2 °C 30.46in /  1031.4hPa Calm     82% 0.00in /  0mm
07:04 -2.0 °F /  -18.9 °C -6.1 °F /  -21.2 °C 30.46in /  1031.4hPa Calm     82% 0.00in /  0mm
07:09 -2.0 °F /  -18.9 °C -6.4 °F /  -21.3 °C 30.46in /  1031.4hPa Calm     81% 0.00in /  0mm
07:14 -2.0 °F /  -18.9 °C -6.1 °F /  -21.2 °C 30.46in /  1031.4hPa Calm     82% 0.00in /  0mm
07:19 -2.1 °F /  -18.9 °C -6.5 °F /  -21.4 °C 30.46in /  1031.4hPa Calm     81% 0.00in /  0mm
07:24 -2.3 °F /  -19.1 °C -6.7 °F /  -21.5 °C 30.46in /  1031.4hPa Calm     81% 0.00in /  0mm
07:29 -2.3 °F /  -19.1 °C -6.7 °F /  -21.5 °C 30.46in /  1031.4hPa Calm     81% 0.00in /  0mm
07:34 -2.5 °F /  -19.2 °C -6.9 °F /  -21.6 °C 30.46in /  1031.4hPa Calm     81% 0.00in /  0mm
07:35 -2.5 °F /  -19.2 °C -6.9 °F /  -21.6 °C 30.46in /  1031.4hPa Calm     81% 0.00in /  0mm
07:40 -2.6 °F /  -19.2 °C -7.0 °F /  -21.7 °C 30.45in /  1031hPa Calm     81% 0.00in /  0mm
07:49 -3.1 °F /  -19.5 °C -7.5 °F /  -21.9 °C 30.46in /  1031.4hPa SW 3.0mph /  4.8km/h 3.0mph /  4.8km/h 81% 0.00in /  0mm
07:54 -3.2 °F /  -19.6 °C -7.6 °F /  -22 °C 30.46in /  1031.4hPa Calm   4.0mph /  6.4km/h 81% 0.00in /  0mm
07:59 -3.2 °F /  -19.6 °C -7.6 °F /  -22 °C 30.46in /  1031.4hPa Calm   2.0mph /  3.2km/h 81% 0.00in /  0mm
08:04 -3.1 °F /  -19.5 °C -7.2 °F /  -21.8 °C 30.46in /  1031.4hPa Calm   2.0mph /  3.2km/h 82% 0.00in /  0mm
08:09 -3.0 °F /  -19.4 °C -7.4 °F /  -21.9 °C 30.46in /  1031.4hPa Calm   4.0mph /  6.4km/h 81% 0.00in /  0mm
08:14 -2.8 °F /  -19.3 °C -6.9 °F /  -21.6 °C 30.46in /  1031.4hPa South 1.0mph /  1.6km/h 4.0mph /  6.4km/h 82% 0.00in /  0mm
08:19 -2.6 °F /  -19.2 °C -6.7 °F /  -21.5 °C 30.46in /  1031.4hPa South 3.0mph /  4.8km/h 4.0mph /  6.4km/h 82% 0.00in /  0mm
08:24 -2.4 °F /  -19.1 °C -6.5 °F /  -21.4 °C 30.46in /  1031.4hPa South 2.0mph /  3.2km/h 4.0mph /  6.4km/h 82% 0.00in /  0mm
08:29 -2.1 °F /  -18.9 °C -6.2 °F /  -21.2 °C 30.46in /  1031.4hPa South 2.0mph /  3.2km/h 4.0mph /  6.4km/h 82% 0.00in /  0mm
08:30 -2.1 °F /  -18.9 °C -6.2 °F /  -21.2 °C 30.46in /  1031.4hPa South 2.0mph /  3.2km/h 4.0mph /  6.4km/h 82% 0.00in /  0mm
08:39 -1.4 °F /  -18.6 °C -5.6 °F /  -20.9 °C 30.45in /  1031hPa South 5.0mph /  8km/h 5.0mph /  8km/h 82% 0.00in /  0mm
08:44 -1.1 °F /  -18.4 °C -5.0 °F /  -20.6 °C 30.45in /  1031hPa South 3.0mph /  4.8km/h 4.0mph /  6.4km/h 83% 0.00in /  0mm
08:49 -0.9 °F /  -18.3 °C -4.8 °F /  -20.4 °C 30.45in /  1031hPa South 2.0mph /  3.2km/h 3.0mph /  4.8km/h 83% 0.00in /  0mm
08:54 -0.7 °F /  -18.2 °C -4.6 °F /  -20.3 °C 30.45in /  1031hPa Calm   5.0mph /  8km/h 83% 0.00in /  0mm
08:59 -0.5 °F /  -18.1 °C -4.4 °F /  -20.2 °C 30.45in /  1031hPa SSE 3.0mph /  4.8km/h 5.0mph /  8km/h 83% 0.00in /  0mm
09:04 -0.2 °F /  -17.9 °C -4.1 °F /  -20.1 °C 30.45in /  1031hPa South 3.0mph /  4.8km/h 5.0mph /  8km/h 83% 0.00in /  0mm
09:09 0.0 °F /  -17.8 °C -3.9 °F /  -19.9 °C 30.45in /  1031hPa South 4.0mph /  6.4km/h 5.0mph /  8km/h 83% 0.00in /  0mm
09:14 0.4 °F /  -17.6 °C -3.5 °F /  -19.7 °C 30.45in /  1031hPa South 3.0mph /  4.8km/h 5.0mph /  8km/h 83% 0.00in /  0mm
09:19 1.1 °F /  -17.2 °C -2.9 °F /  -19.4 °C 30.45in /  1031hPa South 2.0mph /  3.2km/h 5.0mph /  8km/h 83% 0.00in /  0mm
09:24 1.8 °F /  -16.8 °C -1.9 °F /  -18.8 °C 30.45in /  1031hPa South 2.0mph /  3.2km/h 4.0mph /  6.4km/h 84% 0.00in /  0mm
09:29 2.2 °F /  -16.6 °C -1.8 °F /  -18.8 °C 30.45in /  1031hPa South 2.0mph /  3.2km/h 4.0mph /  6.4km/h 83% 0.00in /  0mm
09:34 2.9 °F /  -16.2 °C -0.8 °F /  -18.2 °C 30.45in /  1031hPa Calm   4.0mph /  6.4km/h 84% 0.00in /  0mm
09:39 3.6 °F /  -15.8 °C -0.2 °F /  -17.9 °C 30.44in /  1030.7hPa Calm   3.0mph /  4.8km/h 84% 0.00in /  0mm
09:44 4.2 °F /  -15.4 °C 0.2 °F /  -17.7 °C 30.44in /  1030.7hPa South 1.0mph /  1.6km/h 3.0mph /  4.8km/h 83% 0.00in /  0mm
09:49 5.4 °F /  -14.8 °C 1.4 °F /  -17 °C 30.44in /  1030.7hPa South 1.0mph /  1.6km/h 4.0mph /  6.4km/h 83% 0.00in /  0mm
09:54 6.5 °F /  -14.2 °C 2.2 °F /  -16.6 °C 30.44in /  1030.7hPa South 1.0mph /  1.6km/h 4.0mph /  6.4km/h 82% 0.00in /  0mm
09:59 7.6 °F /  -13.6 °C 3.0 °F /  -16.1 °C 30.44in /  1030.7hPa SSW 2.0mph /  3.2km/h 4.0mph /  6.4km/h 81% 0.00in /  0mm
10:04 8.7 °F /  -12.9 °C 3.5 °F /  -15.8 °C 30.44in /  1030.7hPa SSW 2.0mph /  3.2km/h 7.0mph /  11.3km/h 79% 0.00in /  0mm
10:09 9.6 °F /  -12.4 °C 3.6 °F /  -15.8 °C 30.44in /  1030.7hPa WNW 9.0mph /  14.5km/h 10.0mph /  16.1km/h 76% 0.00in /  0mm
10:14 10.4 °F /  -12 °C 3.2 °F /  -16 °C 30.44in /  1030.7hPa West 6.0mph /  9.7km/h 14.0mph /  22.5km/h 72% 0.00in /  0mm
10:19 10.9 °F /  -11.7 °C 3.0 °F /  -16.1 °C 30.44in /  1030.7hPa West 7.0mph /  11.3km/h 14.0mph /  22.5km/h 70% 0.00in /  0mm
10:24 10.9 °F /  -11.7 °C 2.4 °F /  -16.4 °C 30.44in /  1030.7hPa NNW 4.0mph /  6.4km/h 9.0mph /  14.5km/h 68% 0.00in /  0mm
10:29 11.1 °F /  -11.6 °C 2.3 °F /  -16.5 °C 30.44in /  1030.7hPa West 10.0mph /  16.1km/h 12.0mph /  19.3km/h 67% 0.00in /  0mm
10:34 11.0 °F /  -11.7 °C 2.2 °F /  -16.6 °C 30.44in /  1030.7hPa WNW 9.0mph /  14.5km/h 14.0mph /  22.5km/h 67% 0.00in /  0mm
10:39 11.3 °F /  -11.5 °C 2.1 °F /  -16.6 °C 30.44in /  1030.7hPa West 4.0mph /  6.4km/h 14.0mph /  22.5km/h 66% 0.00in /  0mm
10:44 11.9 °F /  -11.2 °C 2.7 °F /  -16.3 °C 30.43in /  1030.4hPa NW 4.0mph /  6.4km/h 12.0mph /  19.3km/h 66% 0.00in /  0mm
10:49 12.0 °F /  -11.1 °C 2.5 °F /  -16.4 °C 30.44in /  1030.7hPa West 9.0mph /  14.5km/h 13.0mph /  20.9km/h 65% 0.00in /  0mm
10:54 12.2 °F /  -11 °C 2.7 °F /  -16.3 °C 30.43in /  1030.4hPa West 7.0mph /  11.3km/h 15.0mph /  24.1km/h 65% 0.00in /  0mm
10:59 12.5 °F /  -10.8 °C 2.6 °F /  -16.3 °C 30.43in /  1030.4hPa West 7.0mph /  11.3km/h 15.0mph /  24.1km/h 64% 0.00in /  0mm
11:04 12.8 °F /  -10.7 °C 2.6 °F /  -16.3 °C 30.43in /  1030.4hPa West 7.0mph /  11.3km/h 15.0mph /  24.1km/h 63% 0.00in /  0mm
11:09 12.7 °F /  -10.7 °C 2.1 °F /  -16.6 °C 30.43in /  1030.4hPa West 3.0mph /  4.8km/h 16.0mph /  25.7km/h 62% 0.00in /  0mm
11:14 12.7 °F /  -10.7 °C 2.1 °F /  -16.6 °C 30.43in /  1030.4hPa West 8.0mph /  12.9km/h 16.0mph /  25.7km/h 62% 0.00in /  0mm
11:19 13.0 °F /  -10.6 °C 2.4 °F /  -16.4 °C 30.43in /  1030.4hPa West 7.0mph /  11.3km/h 14.0mph /  22.5km/h 62% 0.00in /  0mm
11:24 13.2 °F /  -10.4 °C 2.3 °F /  -16.5 °C 30.42in /  1030hPa WNW 12.0mph /  19.3km/h 17.0mph /  27.4km/h 61% 0.00in /  0mm
11:29 13.1 °F /  -10.5 °C 2.2 °F /  -16.6 °C 30.42in /  1030hPa West 8.0mph /  12.9km/h 17.0mph /  27.4km/h 61% 0.00in /  0mm
11:34 13.4 °F /  -10.3 °C 2.4 °F /  -16.4 °C 30.42in /  1030hPa WNW 12.0mph /  19.3km/h 17.0mph /  27.4km/h 61% 0.00in /  0mm
11:39 13.3 °F /  -10.4 °C 2.0 °F /  -16.7 °C 30.42in /  1030hPa WSW 5.0mph /  8km/h 16.0mph /  25.7km/h 60% 0.00in /  0mm
11:44 13.2 °F /  -10.4 °C 1.9 °F /  -16.7 °C 30.41in /  1029.7hPa West 7.0mph /  11.3km/h 18.0mph /  29km/h 60% 0.00in /  0mm
11:49 13.3 °F /  -10.4 °C 2.3 °F /  -16.5 °C 30.41in /  1029.7hPa West 12.0mph /  19.3km/h 13.0mph /  20.9km/h 61% 0.00in /  0mm
11:54 13.5 °F /  -10.3 °C 2.5 °F /  -16.4 °C 30.41in /  1029.7hPa West 10.0mph /  16.1km/h 18.0mph /  29km/h 61% 0.00in /  0mm
11:59 13.4 °F /  -10.3 °C 2.1 °F /  -16.6 °C 30.40in /  1029.3hPa West 9.0mph /  14.5km/h 15.0mph /  24.1km/h 60% 0.00in /  0mm
12:04 13.5 °F /  -10.3 °C 2.2 °F /  -16.6 °C 30.41in /  1029.7hPa West 8.0mph /  12.9km/h 17.0mph /  27.4km/h 60% 0.00in /  0mm
12:09 13.4 °F /  -10.3 °C 2.1 °F /  -16.6 °C 30.40in /  1029.3hPa West 9.0mph /  14.5km/h 19.0mph /  30.6km/h 60% 0.00in /  0mm
12:14 13.9 °F /  -10.1 °C 2.9 °F /  -16.2 °C 30.40in /  1029.3hPa West 9.0mph /  14.5km/h 19.0mph /  30.6km/h 61% 0.00in /  0mm
12:19 13.9 °F /  -10.1 °C 2.9 °F /  -16.2 °C 30.40in /  1029.3hPa West 9.0mph /  14.5km/h 17.0mph /  27.4km/h 61% 0.00in /  0mm
12:24 14.0 °F /  -10 °C 3.0 °F /  -16.1 °C 30.40in /  1029.3hPa West 9.0mph /  14.5km/h 17.0mph /  27.4km/h 61% 0.00in /  0mm
12:29 14.3 °F /  -9.8 °C 3.3 °F /  -15.9 °C 30.40in /  1029.3hPa West 8.0mph /  12.9km/h 18.0mph /  29km/h 61% 0.00in /  0mm
12:34 14.3 °F /  -9.8 °C 3.3 °F /  -15.9 °C 30.39in /  1029hPa West 10.0mph /  16.1km/h 16.0mph /  25.7km/h 61% 0.00in /  0mm
12:39 14.0 °F /  -10 °C 3.0 °F /  -16.1 °C 30.39in /  1029hPa WSW 9.0mph /  14.5km/h 16.0mph /  25.7km/h 61% 0.00in /  0mm
12:44 14.2 °F /  -9.9 °C 3.6 °F /  -15.8 °C 30.39in /  1029hPa WSW 9.0mph /  14.5km/h 16.0mph /  25.7km/h 62% 0.00in /  0mm
12:49 14.3 °F /  -9.8 °C 3.6 °F /  -15.8 °C 30.39in /  1029hPa West 14.0mph /  22.5km/h 17.0mph /  27.4km/h 62% 0.00in /  0mm
12:54 14.3 °F /  -9.8 °C 3.6 °F /  -15.8 °C 30.39in /  1029hPa SW 6.0mph /  9.7km/h 17.0mph /  27.4km/h 62% 0.00in /  0mm
12:59 14.0 °F /  -10 °C 3.4 °F /  -15.9 °C 30.38in /  1028.7hPa West 7.0mph /  11.3km/h 20.0mph /  32.2km/h 62% 0.00in /  0mm
13:04 13.7 °F /  -10.2 °C 3.1 °F /  -16.1 °C 30.38in /  1028.7hPa WSW 6.0mph /  9.7km/h 18.0mph /  29km/h 62% 0.00in /  0mm
13:09 13.8 °F /  -10.1 °C 3.5 °F /  -15.8 °C 30.38in /  1028.7hPa SW 8.0mph /  12.9km/h 11.0mph /  17.7km/h 63% 0.00in /  0mm
13:14 13.9 °F /  -10.1 °C 3.3 °F /  -15.9 °C 30.38in /  1028.7hPa West 8.0mph /  12.9km/h 16.0mph /  25.7km/h 62% 0.00in /  0mm
13:19 13.8 °F /  -10.1 °C 3.2 °F /  -16 °C 30.38in /  1028.7hPa West 9.0mph /  14.5km/h 16.0mph /  25.7km/h 62% 0.00in /  0mm
13:24 13.8 °F /  -10.1 °C 3.2 °F /  -16 °C 30.38in /  1028.7hPa West 8.0mph /  12.9km/h 16.0mph /  25.7km/h 62% 0.00in /  0mm
13:29 13.7 °F /  -10.2 °C 2.7 °F /  -16.3 °C 30.38in /  1028.7hPa West 9.0mph /  14.5km/h 19.0mph /  30.6km/h 61% 0.00in /  0mm
13:34 13.7 °F /  -10.2 °C 2.7 °F /  -16.3 °C 30.37in /  1028.3hPa West 9.0mph /  14.5km/h 19.0mph /  30.6km/h 61% 0.00in /  0mm
13:39 14.0 °F /  -10 °C 3.0 °F /  -16.1 °C 30.37in /  1028.3hPa West 9.0mph /  14.5km/h 17.0mph /  27.4km/h 61% 0.00in /  0mm
13:44 14.1 °F /  -9.9 °C 3.1 °F /  -16.1 °C 30.37in /  1028.3hPa WSW 12.0mph /  19.3km/h 14.0mph /  22.5km/h 61% 0.00in /  0mm
13:49 14.4 °F /  -9.8 °C 3.4 °F /  -15.9 °C 30.37in /  1028.3hPa WNW 10.0mph /  16.1km/h 15.0mph /  24.1km/h 61% 0.00in /  0mm
13:54 14.4 °F /  -9.8 °C 3.0 °F /  -16.1 °C 30.37in /  1028.3hPa WNW 7.0mph /  11.3km/h 16.0mph /  25.7km/h 60% 0.00in /  0mm
13:59 14.1 °F /  -9.9 °C 2.7 °F /  -16.3 °C 30.37in /  1028.3hPa West 7.0mph /  11.3km/h 16.0mph /  25.7km/h 60% 0.00in /  0mm
14:04 14.2 °F /  -9.9 °C 3.2 °F /  -16 °C 30.37in /  1028.3hPa West 8.0mph /  12.9km/h 12.0mph /  19.3km/h 61% 0.00in /  0mm
14:09 14.6 °F /  -9.7 °C 3.2 °F /  -16 °C 30.37in /  1028.3hPa West 11.0mph /  17.7km/h 12.0mph /  19.3km/h 60% 0.00in /  0mm
14:14 14.7 °F /  -9.6 °C 2.9 °F /  -16.2 °C 30.37in /  1028.3hPa West 3.0mph /  4.8km/h 13.0mph /  20.9km/h 59% 0.00in /  0mm
14:19 15.0 °F /  -9.4 °C 3.2 °F /  -16 °C 30.37in /  1028.3hPa SW 8.0mph /  12.9km/h 13.0mph /  20.9km/h 59% 0.00in /  0mm
14:24 15.0 °F /  -9.4 °C 3.2 °F /  -16 °C 30.37in /  1028.3hPa West 6.0mph /  9.7km/h 13.0mph /  20.9km/h 59% 0.00in /  0mm
14:29 14.8 °F /  -9.6 °C 2.7 °F /  -16.3 °C 30.37in /  1028.3hPa West 7.0mph /  11.3km/h 15.0mph /  24.1km/h 58% 0.00in /  0mm
14:34 14.9 °F /  -9.5 °C 2.8 °F /  -16.2 °C 30.37in /  1028.3hPa West 8.0mph /  12.9km/h 15.0mph /  24.1km/h 58% 0.00in /  0mm
14:39 15.0 °F /  -9.4 °C 2.9 °F /  -16.2 °C 30.37in /  1028.3hPa WSW 8.0mph /  12.9km/h 18.0mph /  29km/h 58% 0.00in /  0mm
14:44 14.6 °F /  -9.7 °C 2.5 °F /  -16.4 °C 30.37in /  1028.3hPa WSW 9.0mph /  14.5km/h 18.0mph /  29km/h 58% 0.00in /  0mm
14:49 14.3 °F /  -9.8 °C 2.9 °F /  -16.2 °C 30.37in /  1028.3hPa West 9.0mph /  14.5km/h 18.0mph /  29km/h 60% 0.00in /  0mm
14:54 14.4 °F /  -9.8 °C 3.0 °F /  -16.1 °C 30.37in /  1028.3hPa WNW 9.0mph /  14.5km/h 15.0mph /  24.1km/h 60% 0.00in /  0mm
14:59 14.4 °F /  -9.8 °C 3.4 °F /  -15.9 °C 30.37in /  1028.3hPa WNW 8.0mph /  12.9km/h 19.0mph /  30.6km/h 61% 0.00in /  0mm
15:04 14.1 °F /  -9.9 °C 3.5 °F /  -15.8 °C 30.37in /  1028.3hPa WSW 6.0mph /  9.7km/h 20.0mph /  32.2km/h 62% 0.00in /  0mm
15:09 13.9 °F /  -10.1 °C 3.6 °F /  -15.8 °C 30.37in /  1028.3hPa West 6.0mph /  9.7km/h 18.0mph /  29km/h 63% 0.00in /  0mm
15:10 13.9 °F /  -10.1 °C 3.6 °F /  -15.8 °C 30.37in /  1028.3hPa WSW 10.0mph /  16.1km/h 20.0mph /  32.2km/h 63% 0.00in /  0mm
15:19 14.4 °F /  -9.8 °C 4.4 °F /  -15.3 °C 30.37in /  1028.3hPa NW 6.0mph /  9.7km/h 18.0mph /  29km/h 64% 0.00in /  0mm
15:24 14.4 °F /  -9.8 °C 4.1 °F /  -15.5 °C 30.38in /  1028.7hPa SW 11.0mph /  17.7km/h 17.0mph /  27.4km/h 63% 0.00in /  0mm
15:30 14.4 °F /  -9.8 °C 4.1 °F /  -15.5 °C 30.38in /  1028.7hPa WNW 16.0mph /  25.7km/h 16.0mph /  25.7km/h 63% 0.00in /  0mm
15:39 13.1 °F /  -10.5 °C 3.9 °F /  -15.6 °C 30.38in /  1028.7hPa West 10.0mph /  16.1km/h 22.0mph /  35.4km/h 66% 0.00in /  0mm
15:44 12.7 °F /  -10.7 °C 3.8 °F /  -15.7 °C 30.38in /  1028.7hPa West 10.0mph /  16.1km/h 22.0mph /  35.4km/h 67% 0.00in /  0mm
15:49 12.4 °F /  -10.9 °C 3.8 °F /  -15.7 °C 30.38in /  1028.7hPa West 10.0mph /  16.1km/h 20.0mph /  32.2km/h 68% 0.00in /  0mm
15:54 12.3 °F /  -10.9 °C 3.7 °F /  -15.7 °C 30.38in /  1028.7hPa WSW 7.0mph /  11.3km/h 18.0mph /  29km/h 68% 0.00in /  0mm
15:59 12.2 °F /  -11 °C 3.6 °F /  -15.8 °C 30.38in /  1028.7hPa West 4.0mph /  6.4km/h 16.0mph /  25.7km/h 68% 0.00in /  0mm
16:04 12.2 °F /  -11 °C 3.6 °F /  -15.8 °C 30.38in /  1028.7hPa West 8.0mph /  12.9km/h 17.0mph /  27.4km/h 68% 0.00in /  0mm
16:09 12.2 °F /  -11 °C 3.6 °F /  -15.8 °C 30.38in /  1028.7hPa West 10.0mph /  16.1km/h 20.0mph /  32.2km/h 68% 0.00in /  0mm
16:14 12.2 °F /  -11 °C 4.0 °F /  -15.6 °C 30.38in /  1028.7hPa West 8.0mph /  12.9km/h 20.0mph /  32.2km/h 69% 0.00in /  0mm
16:19 12.3 °F /  -10.9 °C 4.1 °F /  -15.5 °C 30.38in /  1028.7hPa WNW 10.0mph /  16.1km/h 20.0mph /  32.2km/h 69% 0.00in /  0mm
16:20 12.3 °F /  -10.9 °C 4.1 °F /  -15.5 °C 30.38in /  1028.7hPa West 9.0mph /  14.5km/h 20.0mph /  32.2km/h 69% 0.00in /  0mm
16:29 12.1 °F /  -11.1 °C 4.2 °F /  -15.4 °C 30.39in /  1029hPa West 5.0mph /  8km/h 17.0mph /  27.4km/h 70% 0.00in /  0mm
16:34 11.9 °F /  -11.2 °C 4.0 °F /  -15.6 °C 30.38in /  1028.7hPa WNW 12.0mph /  19.3km/h 19.0mph /  30.6km/h 70% 0.00in /  0mm
16:39 11.7 °F /  -11.3 °C 3.8 °F /  -15.7 °C 30.39in /  1029hPa West 9.0mph /  14.5km/h 19.0mph /  30.6km/h 70% 0.00in /  0mm
16:44 11.7 °F /  -11.3 °C 4.1 °F /  -15.5 °C 30.39in /  1029hPa West 9.0mph /  14.5km/h 19.0mph /  30.6km/h 71% 0.00in /  0mm
16:49 11.6 °F /  -11.3 °C 4.3 °F /  -15.4 °C 30.39in /  1029hPa West 9.0mph /  14.5km/h 19.0mph /  30.6km/h 72% 0.00in /  0mm
16:54 11.4 °F /  -11.4 °C 4.1 °F /  -15.5 °C 30.39in /  1029hPa West 9.0mph /  14.5km/h 19.0mph /  30.6km/h 72% 0.00in /  0mm
16:59 11.4 °F /  -11.4 °C 4.4 °F /  -15.3 °C 30.39in /  1029hPa West 6.0mph /  9.7km/h 17.0mph /  27.4km/h 73% 0.00in /  0mm
17:04 11.1 °F /  -11.6 °C 4.4 °F /  -15.3 °C 30.39in /  1029hPa West 3.0mph /  4.8km/h 15.0mph /  24.1km/h 74% 0.00in /  0mm
17:09 10.9 °F /  -11.7 °C 4.2 °F /  -15.4 °C 30.39in /  1029hPa West 7.0mph /  11.3km/h 14.0mph /  22.5km/h 74% 0.00in /  0mm
17:14 10.9 °F /  -11.7 °C 4.2 °F /  -15.4 °C 30.39in /  1029hPa West 8.0mph /  12.9km/h 18.0mph /  29km/h 74% 0.00in /  0mm
17:19 10.8 °F /  -11.8 °C 4.1 °F /  -15.5 °C 30.40in /  1029.3hPa West 9.0mph /  14.5km/h 18.0mph /  29km/h 74% 0.00in /  0mm
17:24 10.8 °F /  -11.8 °C 4.4 °F /  -15.3 °C 30.40in /  1029.3hPa SW 5.0mph /  8km/h 19.0mph /  30.6km/h 75% 0.00in /  0mm
17:25 10.8 °F /  -11.8 °C 4.4 °F /  -15.3 °C 30.40in /  1029.3hPa West 9.0mph /  14.5km/h 19.0mph /  30.6km/h 75% 0.00in /  0mm
17:34 10.7 °F /  -11.8 °C 4.3 °F /  -15.4 °C 30.40in /  1029.3hPa WNW 8.0mph /  12.9km/h 22.0mph /  35.4km/h 75% 0.00in /  0mm
17:39 10.7 °F /  -11.8 °C 4.3 °F /  -15.4 °C 30.40in /  1029.3hPa WSW 4.0mph /  6.4km/h 18.0mph /  29km/h 75% 0.00in /  0mm
17:44 10.8 °F /  -11.8 °C 4.7 °F /  -15.2 °C 30.41in /  1029.7hPa West 9.0mph /  14.5km/h 18.0mph /  29km/h 76% 0.00in /  0mm
17:45 10.8 °F /  -11.8 °C 4.7 °F /  -15.2 °C 30.41in /  1029.7hPa WSW 9.0mph /  14.5km/h 17.0mph /  27.4km/h 76% 0.00in /  0mm
17:54 11.0 °F /  -11.7 °C 4.9 °F /  -15.1 °C 30.41in /  1029.7hPa West 9.0mph /  14.5km/h 20.0mph /  32.2km/h 76% 0.00in /  0mm
17:59 11.2 °F /  -11.6 °C 5.1 °F /  -14.9 °C 30.41in /  1029.7hPa West 10.0mph /  16.1km/h 19.0mph /  30.6km/h 76% 0.00in /  0mm
18:04 11.3 °F /  -11.5 °C 5.5 °F /  -14.7 °C 30.42in /  1030hPa West 10.0mph /  16.1km/h 17.0mph /  27.4km/h 77% 0.00in /  0mm
18:05 11.3 °F /  -11.5 °C 5.5 °F /  -14.7 °C 30.42in /  1030hPa West 9.0mph /  14.5km/h 17.0mph /  27.4km/h 77% 0.00in /  0mm
18:10 11.4 °F /  -11.4 °C 5.6 °F /  -14.7 °C 30.41in /  1029.7hPa West 9.0mph /  14.5km/h 22.0mph /  35.4km/h 77% 0.00in /  0mm
18:19 11.2 °F /  -11.6 °C 5.4 °F /  -14.8 °C 30.42in /  1030hPa WNW 9.0mph /  14.5km/h 23.0mph /  37km/h 77% 0.00in /  0mm
18:29 11.2 °F /  -11.6 °C 5.4 °F /  -14.8 °C 30.42in /  1030hPa West 9.0mph /  14.5km/h 22.0mph /  35.4km/h 77% 0.00in /  0mm
18:34 11.1 °F /  -11.6 °C 5.6 °F /  -14.7 °C 30.43in /  1030.4hPa WNW 4.0mph /  6.4km/h 15.0mph /  24.1km/h 78% 0.00in /  0mm
18:39 11.2 °F /  -11.6 °C 5.7 °F /  -14.6 °C 30.42in /  1030hPa West 4.0mph /  6.4km/h 19.0mph /  30.6km/h 78% 0.00in /  0mm
18:44 11.2 °F /  -11.6 °C 5.7 °F /  -14.6 °C 30.42in /  1030hPa West 12.0mph /  19.3km/h 14.0mph /  22.5km/h 78% 0.00in /  0mm
18:49 11.2 °F /  -11.6 °C 5.7 °F /  -14.6 °C 30.43in /  1030.4hPa West 16.0mph /  25.7km/h 19.0mph /  30.6km/h 78% 0.00in /  0mm
18:54 11.2 °F /  -11.6 °C 5.7 °F /  -14.6 °C 30.43in /  1030.4hPa West 7.0mph /  11.3km/h 16.0mph /  25.7km/h 78% 0.00in /  0mm
18:59 11.3 °F /  -11.5 °C 5.8 °F /  -14.6 °C 30.43in /  1030.4hPa West 9.0mph /  14.5km/h 19.0mph /  30.6km/h 78% 0.00in /  0mm
19:04 11.3 °F /  -11.5 °C 5.8 °F /  -14.6 °C 30.43in /  1030.4hPa West 9.0mph /  14.5km/h 18.0mph /  29km/h 78% 0.00in /  0mm
19:09 11.2 °F /  -11.6 °C 5.7 °F /  -14.6 °C 30.43in /  1030.4hPa West 8.0mph /  12.9km/h 17.0mph /  27.4km/h 78% 0.00in /  0mm
19:14 11.2 °F /  -11.6 °C 5.7 °F /  -14.6 °C 30.43in /  1030.4hPa West 8.0mph /  12.9km/h 17.0mph /  27.4km/h 78% 0.00in /  0mm
19:19 11.1 °F /  -11.6 °C 5.6 °F /  -14.7 °C 30.43in /  1030.4hPa West 9.0mph /  14.5km/h 22.0mph /  35.4km/h 78% 0.00in /  0mm
19:24 11.1 °F /  -11.6 °C 5.6 °F /  -14.7 °C 30.43in /  1030.4hPa WSW 5.0mph /  8km/h 14.0mph /  22.5km/h 78% 0.00in /  0mm
19:29 11.1 °F /  -11.6 °C 5.6 °F /  -14.7 °C 30.43in /  1030.4hPa West 11.0mph /  17.7km/h 15.0mph /  24.1km/h 78% 0.00in /  0mm
19:34 11.0 °F /  -11.7 °C 5.8 °F /  -14.6 °C 30.44in /  1030.7hPa West 8.0mph /  12.9km/h 21.0mph /  33.8km/h 79% 0.00in /  0mm
19:39 11.0 °F /  -11.7 °C 5.8 °F /  -14.6 °C 30.44in /  1030.7hPa WSW 4.0mph /  6.4km/h 17.0mph /  27.4km/h 79% 0.00in /  0mm
19:44 10.9 °F /  -11.7 °C 5.9 °F /  -14.5 °C 30.44in /  1030.7hPa WNW 6.0mph /  9.7km/h 13.0mph /  20.9km/h 80% 0.00in /  0mm
19:49 10.7 °F /  -11.8 °C 5.7 °F /  -14.6 °C 30.44in /  1030.7hPa West 6.0mph /  9.7km/h 15.0mph /  24.1km/h 80% 0.00in /  0mm
19:54 10.7 °F /  -11.8 °C 5.7 °F /  -14.6 °C 30.44in /  1030.7hPa West 8.0mph /  12.9km/h 16.0mph /  25.7km/h 80% 0.00in /  0mm
19:59 10.6 °F /  -11.9 °C 5.9 °F /  -14.5 °C 30.44in /  1030.7hPa West 12.0mph /  19.3km/h 13.0mph /  20.9km/h 81% 0.00in /  0mm
20:04 10.6 °F /  -11.9 °C 5.9 °F /  -14.5 °C 30.44in /  1030.7hPa WNW 5.0mph /  8km/h 13.0mph /  20.9km/h 81% 0.00in /  0mm
20:09 10.6 °F /  -11.9 °C 5.9 °F /  -14.5 °C 30.44in /  1030.7hPa West 7.0mph /  11.3km/h 17.0mph /  27.4km/h 81% 0.00in /  0mm
20:14 10.6 °F /  -11.9 °C 5.9 °F /  -14.5 °C 30.44in /  1030.7hPa West 7.0mph /  11.3km/h 17.0mph /  27.4km/h 81% 0.00in /  0mm
20:19 10.6 °F /  -11.9 °C 5.9 °F /  -14.5 °C 30.44in /  1030.7hPa West 7.0mph /  11.3km/h 13.0mph /  20.9km/h 81% 0.00in /  0mm
20:24 10.6 °F /  -11.9 °C 5.9 °F /  -14.5 °C 30.44in /  1030.7hPa West 7.0mph /  11.3km/h 15.0mph /  24.1km/h 81% 0.00in /  0mm
20:29 10.6 °F /  -11.9 °C 5.9 °F /  -14.5 °C 30.44in /  1030.7hPa West 7.0mph /  11.3km/h 15.0mph /  24.1km/h 81% 0.00in /  0mm
20:34 10.6 °F /  -11.9 °C 5.9 °F /  -14.5 °C 30.44in /  1030.7hPa West 7.0mph /  11.3km/h 15.0mph /  24.1km/h 81% 0.00in /  0mm
20:39 10.6 °F /  -11.9 °C 5.9 °F /  -14.5 °C 30.45in /  1031hPa West 9.0mph /  14.5km/h 13.0mph /  20.9km/h 81% 0.00in /  0mm
20:44 10.6 °F /  -11.9 °C 5.9 °F /  -14.5 °C 30.45in /  1031hPa West 9.0mph /  14.5km/h 14.0mph /  22.5km/h 81% 0.00in /  0mm
20:49 10.6 °F /  -11.9 °C 6.2 °F /  -14.3 °C 30.45in /  1031hPa West 7.0mph /  11.3km/h 14.0mph /  22.5km/h 82% 0.00in /  0mm
20:54 10.5 °F /  -11.9 °C 6.1 °F /  -14.4 °C 30.45in /  1031hPa WSW 7.0mph /  11.3km/h 12.0mph /  19.3km/h 82% 0.00in /  0mm
20:59 10.5 °F /  -11.9 °C 6.1 °F /  -14.4 °C 30.45in /  1031hPa NW 11.0mph /  17.7km/h 14.0mph /  22.5km/h 82% 0.00in /  0mm
21:09 10.5 °F /  -11.9 °C 6.1 °F /  -14.4 °C 30.45in /  1031hPa NNW 9.0mph /  14.5km/h 14.0mph /  22.5km/h 82% 0.00in /  0mm
21:14 10.5 °F /  -11.9 °C 6.4 °F /  -14.2 °C 30.45in /  1031hPa West 6.0mph /  9.7km/h 13.0mph /  20.9km/h 83% 0.00in /  0mm
21:19 10.5 °F /  -11.9 °C 6.4 °F /  -14.2 °C 30.46in /  1031.4hPa West 7.0mph /  11.3km/h 15.0mph /  24.1km/h 83% 0.00in /  0mm
21:24 10.4 °F /  -12 °C 6.3 °F /  -14.3 °C 30.46in /  1031.4hPa West 7.0mph /  11.3km/h 15.0mph /  24.1km/h 83% 0.00in /  0mm
21:29 10.4 °F /  -12 °C 6.3 °F /  -14.3 °C 30.46in /  1031.4hPa West 6.0mph /  9.7km/h 15.0mph /  24.1km/h 83% 0.00in /  0mm
21:34 10.4 °F /  -12 °C 6.3 °F /  -14.3 °C 30.46in /  1031.4hPa West 6.0mph /  9.7km/h 11.0mph /  17.7km/h 83% 0.00in /  0mm
21:39 10.4 °F /  -12 °C 6.3 °F /  -14.3 °C 30.47in /  1031.7hPa West 6.0mph /  9.7km/h 11.0mph /  17.7km/h 83% 0.00in /  0mm
21:44 10.4 °F /  -12 °C 6.3 °F /  -14.3 °C 30.47in /  1031.7hPa West 4.0mph /  6.4km/h 11.0mph /  17.7km/h 83% 0.00in /  0mm
21:49 10.4 °F /  -12 °C 6.3 °F /  -14.3 °C 30.47in /  1031.7hPa WNW 11.0mph /  17.7km/h 11.0mph /  17.7km/h 83% 0.00in /  0mm
21:54 10.4 °F /  -12 °C 6.3 °F /  -14.3 °C 30.47in /  1031.7hPa WNW 9.0mph /  14.5km/h 16.0mph /  25.7km/h 83% 0.00in /  0mm
21:59 10.4 °F /  -12 °C 6.3 °F /  -14.3 °C 30.47in /  1031.7hPa West 10.0mph /  16.1km/h 12.0mph /  19.3km/h 83% 0.00in /  0mm
22:04 10.3 °F /  -12.1 °C 6.2 °F /  -14.3 °C 30.46in /  1031.4hPa WNW 11.0mph /  17.7km/h 15.0mph /  24.1km/h 83% 0.00in /  0mm
22:09 10.3 °F /  -12.1 °C 6.2 °F /  -14.3 °C 30.46in /  1031.4hPa West 4.0mph /  6.4km/h 12.0mph /  19.3km/h 83% 0.00in /  0mm
22:24 10.3 °F /  -12.1 °C 6.2 °F /  -14.3 °C 30.46in /  1031.4hPa West 7.0mph /  11.3km/h 14.0mph /  22.5km/h 83% 0.00in /  0mm
22:29 10.3 °F /  -12.1 °C 6.2 °F /  -14.3 °C 30.47in /  1031.7hPa West 7.0mph /  11.3km/h 14.0mph /  22.5km/h 83% 0.00in /  0mm
22:34 10.3 °F /  -12.1 °C 6.2 °F /  -14.3 °C 30.47in /  1031.7hPa West 7.0mph /  11.3km/h 15.0mph /  24.1km/h 83% 0.00in /  0mm
22:39 10.3 °F /  -12.1 °C 6.2 °F /  -14.3 °C 30.47in /  1031.7hPa West 7.0mph /  11.3km/h 15.0mph /  24.1km/h 83% 0.00in /  0mm
22:49 10.3 °F /  -12.1 °C 6.2 °F /  -14.3 °C 30.47in /  1031.7hPa West 6.0mph /  9.7km/h 10.0mph /  16.1km/h 83% 0.00in /  0mm
22:54 10.4 °F /  -12 °C 6.3 °F /  -14.3 °C 30.47in /  1031.7hPa WNW 4.0mph /  6.4km/h 9.0mph /  14.5km/h 83% 0.00in /  0mm
22:59 10.4 °F /  -12 °C 6.3 °F /  -14.3 °C 30.47in /  1031.7hPa West 6.0mph /  9.7km/h 11.0mph /  17.7km/h 83% 0.00in /  0mm
23:04 10.4 °F /  -12 °C 6.3 °F /  -14.3 °C 30.47in /  1031.7hPa West 7.0mph /  11.3km/h 15.0mph /  24.1km/h 83% 0.00in /  0mm
23:09 10.4 °F /  -12 °C 6.3 °F /  -14.3 °C 30.47in /  1031.7hPa WNW 5.0mph /  8km/h 10.0mph /  16.1km/h 83% 0.00in /  0mm
23:19 10.4 °F /  -12 °C 6.3 °F /  -14.3 °C 30.47in /  1031.7hPa WSW 9.0mph /  14.5km/h 12.0mph /  19.3km/h 83% 0.00in /  0mm
23:24 10.5 °F /  -11.9 °C 6.4 °F /  -14.2 °C 30.46in /  1031.4hPa West 6.0mph /  9.7km/h 12.0mph /  19.3km/h 83% 0.00in /  0mm
23:25 10.5 °F /  -11.9 °C 6.4 °F /  -14.2 °C 30.46in /  1031.4hPa West 4.0mph /  6.4km/h 12.0mph /  19.3km/h 83% 0.00in /  0mm
23:34 10.5 °F /  -11.9 °C 6.4 °F /  -14.2 °C 30.46in /  1031.4hPa West 6.0mph /  9.7km/h 11.0mph /  17.7km/h 83% 0.00in /  0mm
23:39 10.6 °F /  -11.9 °C 6.5 °F /  -14.2 °C 30.46in /  1031.4hPa West 6.0mph /  9.7km/h 11.0mph /  17.7km/h 83% 0.00in /  0mm
23:49 10.6 °F /  -11.9 °C 6.5 °F /  -14.2 °C 30.46in /  1031.4hPa West 5.0mph /  8km/h 12.0mph /  19.3km/h 83% 0.00in /  0mm
23:54 10.7 °F /  -11.8 °C 6.6 °F /  -14.1 °C 30.46in /  1031.4hPa WNW 6.0mph /  9.7km/h 11.0mph /  17.7km/h 83% 0.00in /  0mm
23:55 10.7 °F /  -11.8 °C 6.6 °F /  -14.1 °C 30.46in /  1031.4hPa West 5.0mph /  8km/h 11.0mph /  17.7km/h 83% 0.00in /  0mm
Buffalo, New York, USA
Compliments of Weather Underground - 2.5 mb